METAR AND TAF INFORMATION
METAR FOR GMAD
ADDS - METARS form results

(1421 UTC 24 February 2020)
Data provider http://aviationweather.gov/metar/data/
 
METAR text: GMAD 241400Z 28004KT 220V000 CAVOK 32/M07 Q1023 NOSIG
Conditions at: GMAD (AL MASSIRA MC , MA) observed 1400 UTC 24 February 2020
Temperature: 32.0°C (90°F)
Dewpoint: -7.0°C (19°F) [RH =  8%]
Pressure (altimeter): 30.21 inches Hg (1023.0 mb)
Winds: from the W (280 degrees) at 5 MPH (4 knots; 2.1 m/s)
Visibility: 6 or more miles (10+ km)
Ceiling: ceiling and visibility are OK
Clouds: unknown
Weather: no significant weather observed at this time

METAR text: GMAD 241330Z 09003KT 050V170 CAVOK 31/M07 Q1024 NOSIG
Conditions at: GMAD (AL MASSIRA MC , MA) observed 1330 UTC 24 February 2020
Temperature: 31.0°C (88°F)
Dewpoint: -7.0°C (19°F) [RH =  8%]
Pressure (altimeter): 30.24 inches Hg (1024.0 mb)
Winds: from the E (90 degrees) at 3 MPH (3 knots; 1.5 m/s)
Visibility: 6 or more miles (10+ km)
Ceiling: ceiling and visibility are OK
Clouds: unknown
Weather: no significant weather observed at this time

Forecast for: GMAD (AL MASSIRA MC , MA)
Text: TAF GMAD 241100Z 2412/2518 27012KT CAVOK
Forecast period: 1200 UTC 24 February 2020 to 1800 UTC 25 February 2020
Forecast type: FROM: standard forecast or significant change
Winds: from the W (270 degrees) at 14 MPH (12 knots; 6.2 m/s)
Visibility: 6 or more miles 10+ km)
Ceiling: unknown
Clouds: missing
Weather: NSW  (no significant weather)

 AIRPORT MAP

 RUNWAY INFORMATION
Runway 10 Runway length 10499 ft Runway width 148 ft
Runway elevation 198 ft Runway displaced threshold 0 ft Runway heading 92
Runway 28 Runway length 10499 ft Runway width 148 ft
Runway elevation 254 ft Runway displaced threshold 0 ft Runway heading 272

 AIRPORT FREQUENCIES
Type APP Name AGADIR APP Frequency 120.9 MHZ
Type TWR Name AGADIR TWR Frequency 119.5 MHZ

 AIRPORT NEAR NAVIGATION AIDS
Type VOR-DME Name Agadir Frequency 117200 KHZ
Type NDB Name Agadir Frequency 396 KHZ
Type NDB Name Agadir Frequency 402 KHZ



Powered by Virtual Airlines Manager [v2.6.2]